This is the latest recevied weather packets stored in our database for station/object K7SFN. If no packets are shown the sender has not sent any weather packets the latest 10 day(s).
| Time | Temp. | Humidity | Pressure | Rain* | Wind** | Luminosity | Snow |
|---|---|---|---|---|---|---|---|
| 1777799404 | 10.56° C | 83% | 1015.5 hPa | 0 mm | - | - | - |
| 1777797305 | 10.56° C | 84% | 1015.8 hPa | 0 mm | - | - | - |
| 1777796404 | 10.56° C | 84% | 1016.1 hPa | 0 mm | - | - | - |
| 1777795204 | 11.11° C | 83% | 1016.1 hPa | 0 mm | - | - | - |
| 1777794005 | 11.11° C | 81% | 1015.8 hPa | 0 mm | - | - | - |
| 1777791904 | 11.67° C | 80% | 1016.1 hPa | 0 mm | - | - | - |
| 1777791004 | 11.67° C | 80% | 1016 hPa | 0 mm | - | - | - |
| 1777789505 | 11.67° C | 76% | 1016.2 hPa | 0 mm | - | - | - |
| 1777785004 | 12.22° C | 74% | 1016.4 hPa | 0.25 mm | - | - | - |
| 1777784404 | 12.22° C | 74% | 1016.4 hPa | 0.25 mm | - | - | - |
| 1777783804 | 12.22° C | 76% | 1016.3 hPa | 0.25 mm | - | - | - |
| 1777780804 | 12.22° C | 74% | 1016.2 hPa | 0 mm | - | - | - |
| 1777780204 | 12.78° C | 74% | 1015.7 hPa | 0 mm | - | - | - |
| 1777778404 | 13.33° C | 73% | 1016.1 hPa | 0 mm | - | - | - |
| 1777777205 | 13.89° C | 66% | 1015.7 hPa | 0 mm | - | - | - |
| 1777775704 | 15° C | 56% | 1015.1 hPa | 0 mm | - | - | - |
| 1777775404 | 15° C | 55% | 1015 hPa | 0 mm | - | - | - |
| 1777773905 | 16.11° C | 52% | 1014.7 hPa | 0 mm | - | - | - |
| 1777767905 | 17.78° C | 43% | 1014.2 hPa | 0 mm | - | - | - |
| 1777763705 | 20° C | 30% | 1014.3 hPa | 0 mm | - | - | - |
| 1777758304 | 20° C | 30% | 1015.1 hPa | 0 mm | - | - | - |
| 1777757705 | 20° C | 31% | 1015.2 hPa | 0 mm | - | - | - |
| 1777750205 | 21.11° C | 26% | 1016.1 hPa | 0 mm | - | - | - |
| 1777748404 | 21.67° C | 24% | 1016.3 hPa | 0 mm | - | - | - |
| 1777747804 | 21.67° C | 25% | 1016.3 hPa | 0 mm | - | - | - |
* Rain latest hour (hover to see other rain measurements)
** Current wind speed in m/s (hover to see current wind gust speed)